Time;durP1;ratioP1;P1;durP2;ratioP2;P2;SDS_P1;SDS_P2;PMS_P1;PMS_P2;Temp;Humidity;BMP_temperature;BMP_pressure;BME280_temperature;BME280_humidity;BME280_pressure;Samples;Min_cycle;Max_cycle;Signal;HPM_P1;HPM_P2
2023/09/22 00:01:20;;;;;;;16.08;4.80;;;;;;;;;;10459381;28;20211;-78
2023/09/22 00:06:22;;;;;;;9.20;4.83;;;;;;;;;;10458358;28;20029;-78
2023/09/22 00:11:22;;;;;;;7.63;4.85;;;;;;;;;;10458708;28;20298;-78
2023/09/22 00:16:23;;;;;;;9.90;4.90;;;;;;;;;;10459865;28;20032;-79
2023/09/22 00:21:23;;;;;;;9.70;4.63;;;;;;;;;;10459082;28;20215;-79
2023/09/22 00:26:23;;;;;;;10.63;5.22;;;;;;;;;;10460259;28;20353;-78
2023/09/22 00:31:25;;;;;;;10.47;6.53;;;;;;;;;;10458152;28;20092;-79
2023/09/22 00:36:25;;;;;;;15.75;4.70;;;;;;;;;;10440977;28;20342;-79
2023/09/22 00:41:26;;;;;;;9.98;4.75;;;;;;;;;;10457909;28;20009;-78
2023/09/22 00:46:26;;;;;;;10.63;4.97;;;;;;;;;;10458367;28;20299;-79
2023/09/22 00:51:27;;;;;;;13.70;5.22;;;;;;;;;;10438770;28;20091;-79
2023/09/22 00:56:28;;;;;;;10.60;4.22;;;;;;;;;;10455780;28;20013;-79
2023/09/22 01:01:28;;;;;;;7.97;4.30;;;;;;;;;;10458352;28;20298;-78
2023/09/22 01:06:29;;;;;;;9.93;4.50;;;;;;;;;;10458992;28;20070;-78
2023/09/22 01:11:31;;;;;;;8.50;3.80;;;;;;;;;;10457489;28;20032;-80
2023/09/22 01:16:32;;;;;;;10.68;5.00;;;;;;;;;;10457052;28;20017;-79
2023/09/22 01:21:32;;;;;;;14.73;5.22;;;;;;;;;;10441195;28;20037;-80
2023/09/22 01:26:32;;;;;;;13.25;5.82;;;;;;;;;;10459366;28;20337;-79
2023/09/22 01:31:33;;;;;;;13.50;6.40;;;;;;;;;;10458702;28;20017;-80
2023/09/22 01:36:34;;;;;;;20.98;5.50;;;;;;;;;;10460170;28;20025;-79
2023/09/22 01:41:35;;;;;;;16.75;6.70;;;;;;;;;;10456442;28;20086;-78
2023/09/22 01:46:35;;;;;;;10.65;6.32;;;;;;;;;;10438860;28;20021;-79
2023/09/22 01:51:38;;;;;;;15.95;6.07;;;;;;;;;;10440139;28;20350;-79
2023/09/22 01:56:38;;;;;;;11.07;5.60;;;;;;;;;;10439543;28;20024;-80
2023/09/22 02:01:39;;;;;;;8.77;4.95;;;;;;;;;;10456750;28;20021;-80
2023/09/22 02:06:40;;;;;;;15.32;6.90;;;;;;;;;;10457484;28;20083;-80
2023/09/22 02:11:40;;;;;;;11.20;5.80;;;;;;;;;;10458401;28;20041;-80
2023/09/22 02:16:40;;;;;;;13.15;5.45;;;;;;;;;;10467872;28;20089;-80
2023/09/22 02:21:41;;;;;;;13.13;5.60;;;;;;;;;;10449866;28;20309;-81
2023/09/22 02:26:41;;;;;;;8.60;4.30;;;;;;;;;;10466429;28;20302;-81
2023/09/22 02:31:42;;;;;;;10.90;5.30;;;;;;;;;;10446529;28;20107;-79
2023/09/22 02:36:43;;;;;;;9.63;5.57;;;;;;;;;;10444534;28;20461;-75
2023/09/22 02:41:44;;;;;;;12.20;6.80;;;;;;;;;;10463867;28;20242;-80
2023/09/22 02:46:45;;;;;;;12.40;7.20;;;;;;;;;;10465444;28;20025;-79
2023/09/22 02:51:45;;;;;;;16.25;6.40;;;;;;;;;;10463895;28;20035;-79
2023/09/22 02:56:45;;;;;;;14.90;7.33;;;;;;;;;;10464097;28;20051;-79
2023/09/22 03:01:46;;;;;;;19.48;7.72;;;;;;;;;;10464146;28;20291;-79
2023/09/22 03:06:46;;;;;;;14.95;6.90;;;;;;;;;;10463120;28;20033;-79
2023/09/22 03:11:46;;;;;;;10.82;6.55;;;;;;;;;;10465611;28;20071;-79
2023/09/22 03:16:48;;;;;;;12.98;7.35;;;;;;;;;;10461428;28;20227;-80
2023/09/22 03:21:48;;;;;;;10.15;5.95;;;;;;;;;;10464173;28;20208;-80
2023/09/22 03:26:48;;;;;;;9.90;4.65;;;;;;;;;;10458568;28;20021;-80
2023/09/22 03:31:49;;;;;;;8.25;4.13;;;;;;;;;;10460410;28;20035;-79
2023/09/22 03:36:49;;;;;;;8.25;3.75;;;;;;;;;;10460192;28;20299;-79
2023/09/22 03:41:52;;;;;;;15.03;5.00;;;;;;;;;;10462029;28;20044;-79
2023/09/22 03:46:52;;;;;;;13.23;4.35;;;;;;;;;;10460813;28;20136;-79
2023/09/22 03:51:53;;;;;;;9.48;4.07;;;;;;;;;;10458041;28;20223;-78
2023/09/22 03:56:53;;;;;;;9.95;4.60;;;;;;;;;;10460590;28;20345;-77
2023/09/22 04:01:54;;;;;;;13.27;4.72;;;;;;;;;;10440076;28;20031;-75
2023/09/22 04:06:54;;;;;;;12.68;4.40;;;;;;;;;;10461558;28;20048;-76
2023/09/22 04:11:54;;;;;;;14.98;4.50;;;;;;;;;;10458777;28;20315;-78
2023/09/22 04:16:55;;;;;;;8.63;4.20;;;;;;;;;;10438906;28;20090;-76
2023/09/22 04:21:56;;;;;;;7.82;4.00;;;;;;;;;;10455362;28;20208;-76
2023/09/22 04:27:00;;;;;;;10.13;3.90;;;;;;;;;;10456342;28;20234;-75
2023/09/22 04:32:01;;;;;;;13.43;4.38;;;;;;;;;;10439307;28;20029;-75
2023/09/22 04:37:04;;;;;;;14.10;4.85;;;;;;;;;;10453983;28;20032;-76
2023/09/22 04:42:05;;;;;;;15.13;4.15;;;;;;;;;;10456798;28;20028;-76
2023/09/22 04:47:05;;;;;;;9.68;4.35;;;;;;;;;;10456355;28;20417;-76
2023/09/22 04:52:05;;;;;;;14.85;5.25;;;;;;;;;;10456891;28;20025;-76
2023/09/22 04:57:06;;;;;;;15.30;6.97;;;;;;;;;;10457628;28;20021;-76
2023/09/22 05:02:06;;;;;;;10.45;4.03;;;;;;;;;;10455857;28;20017;-76
2023/09/22 05:07:06;;;;;;;14.57;5.13;;;;;;;;;;10456540;28;20025;-76
2023/09/22 05:12:06;;;;;;;16.20;5.13;;;;;;;;;;10437830;28;20296;-76
2023/09/22 05:17:07;;;;;;;14.30;4.80;;;;;;;;;;10455408;28;20413;-76
2023/09/22 05:22:07;;;;;;;11.65;4.93;;;;;;;;;;10438027;28;20132;-76
2023/09/22 05:27:09;;;;;;;16.55;5.10;;;;;;;;;;10454078;28;20309;-78
2023/09/22 05:32:09;;;;;;;14.20;4.97;;;;;;;;;;10456334;28;20036;-74
2023/09/22 05:37:11;;;;;;;15.80;5.40;;;;;;;;;;10454760;28;20049;-72
2023/09/22 05:42:11;;;;;;;10.35;4.93;;;;;;;;;;10453404;28;20013;-80
2023/09/22 05:47:12;;;;;;;27.88;6.57;;;;;;;;;;10454310;28;20315;-75
2023/09/22 05:52:12;;;;;;;10.55;4.88;;;;;;;;;;10455605;28;20100;-80
2023/09/22 05:57:13;;;;;;;16.67;5.10;;;;;;;;;;10437151;28;20032;-77
2023/09/22 06:02:13;;;;;;;25.92;5.13;;;;;;;;;;10455579;28;20013;-77
2023/09/22 06:07:14;;;;;;;17.20;5.60;;;;;;;;;;10455236;28;20029;-79
2023/09/22 06:12:14;;;;;;;15.40;4.40;;;;;;;;;;10453106;28;20307;-78
2023/09/22 06:17:15;;;;;;;21.40;5.57;;;;;;;;;;10457839;28;20032;-78
2023/09/22 06:22:15;;;;;;;17.08;5.05;;;;;;;;;;10437005;28;20042;-76
2023/09/22 06:27:16;;;;;;;25.10;6.80;;;;;;;;;;10451812;28;20029;-77
2023/09/22 06:32:18;;;;;;;13.32;5.30;;;;;;;;;;10454878;28;20353;-77
2023/09/22 06:37:18;;;;;;;19.67;7.38;;;;;;;;;;10466140;28;20029;-77
2023/09/22 06:42:19;;;;;;;14.23;5.65;;;;;;;;;;10453351;28;20080;-76
2023/09/22 06:47:20;;;;;;;23.13;5.57;;;;;;;;;;10437815;28;20033;-70
2023/09/22 06:52:22;;;;;;;15.85;6.78;;;;;;;;;;10452376;28;20134;-72
2023/09/22 06:57:23;;;;;;;19.85;5.82;;;;;;;;;;10452756;28;20025;-72
2023/09/22 07:02:23;;;;;;;16.80;5.90;;;;;;;;;;10456988;28;20017;-73
2023/09/22 07:07:23;;;;;;;31.23;6.82;;;;;;;;;;10457617;28;20259;-73
2023/09/22 07:12:24;;;;;;;14.05;6.10;;;;;;;;;;10454011;28;20056;-72
2023/09/22 07:17:24;;;;;;;19.30;5.50;;;;;;;;;;10453969;28;20087;-73
2023/09/22 07:22:24;;;;;;;14.90;4.30;;;;;;;;;;10458317;28;20249;-73
2023/09/22 07:27:24;;;;;;;10.02;3.88;;;;;;;;;;10459003;28;20294;-73
2023/09/22 07:32:25;;;;;;;15.20;4.35;;;;;;;;;;10459815;28;20412;-73
2023/09/22 07:37:26;;;;;;;11.73;4.80;;;;;;;;;;10459010;28;20025;-73
2023/09/22 07:42:31;;;;;;;10.20;3.78;;;;;;;;;;10460733;28;20009;-73
2023/09/22 07:47:31;;;;;;;11.55;3.78;;;;;;;;;;10461726;28;20020;-72
2023/09/22 07:52:32;;;;;;;19.53;3.53;;;;;;;;;;10440978;28;20306;-73
2023/09/22 07:57:33;;;;;;;10.82;2.67;;;;;;;;;;10460275;28;20040;-73
2023/09/22 08:02:34;;;;;;;8.75;3.53;;;;;;;;;;10459448;28;20192;-83
2023/09/22 08:07:34;;;;;;;11.77;2.85;;;;;;;;;;10457796;28;20027;-84
2023/09/22 08:12:34;;;;;;;11.02;2.67;;;;;;;;;;10461921;28;20136;-79
2023/09/22 08:17:35;;;;;;;10.18;3.72;;;;;;;;;;10463315;28;20029;-79
2023/09/22 08:22:35;;;;;;;11.60;3.15;;;;;;;;;;10460470;28;20025;-84
2023/09/22 08:27:36;;;;;;;7.53;2.97;;;;;;;;;;10460799;28;20303;-83
2023/09/22 08:32:39;;;;;;;10.90;3.70;;;;;;;;;;10441500;28;20283;-81
2023/09/22 08:37:43;;;;;;;13.50;4.20;;;;;;;;;;10455870;28;20295;-78
2023/09/22 08:42:44;;;;;;;9.05;3.85;;;;;;;;;;10456031;28;20184;-77
2023/09/22 08:47:46;;;;;;;17.75;4.28;;;;;;;;;;10456377;28;20024;-77
2023/09/22 08:52:56;;;;;;;16.23;3.80;;;;;;;;;;10460665;28;20091;-74
2023/09/22 08:57:56;;;;;;;16.27;3.72;;;;;;;;;;10456254;28;20018;-78
2023/09/22 09:03:07;;;;;;;13.40;4.22;;;;;;;;;;10459096;28;20084;-86
2023/09/22 09:08:10;;;;;;;8.88;3.70;;;;;;;;;;10463254;28;20021;-84
2023/09/22 09:13:28;;;;;;;14.15;3.90;;;;;;;;;;10457539;28;20069;-85
2023/09/22 09:18:29;;;;;;;16.10;4.07;;;;;;;;;;10427477;28;20320;-84
2023/09/22 09:23:29;;;;;;;10.02;3.60;;;;;;;;;;10439274;28;20044;-73
2023/09/22 09:28:30;;;;;;;11.13;3.83;;;;;;;;;;10455276;28;20048;-71
2023/09/22 09:33:33;;;;;;;10.03;3.53;;;;;;;;;;10437604;28;20287;-84
2023/09/22 09:38:40;;;;;;;8.80;3.22;;;;;;;;;;10439530;28;20028;-77
2023/09/22 09:43:44;;;;;;;11.43;3.53;;;;;;;;;;10436698;28;20287;-75
2023/09/22 09:48:45;;;;;;;14.02;3.30;;;;;;;;;;10455468;28;20020;-79
2023/09/22 09:53:45;;;;;;;5.90;2.75;;;;;;;;;;10436872;28;20025;-80
2023/09/22 09:58:46;;;;;;;12.70;3.33;;;;;;;;;;10453949;28;20024;-76
2023/09/22 10:03:46;;;;;;;8.17;2.83;;;;;;;;;;10455741;28;20044;-75
2023/09/22 10:08:46;;;;;;;7.67;2.93;;;;;;;;;;10452094;28;20025;-72
2023/09/22 10:13:47;;;;;;;9.68;2.65;;;;;;;;;;10452632;28;20867;-76
2023/09/22 10:18:51;;;;;;;11.73;2.97;;;;;;;;;;10455191;28;20128;-81
2023/09/22 10:24:10;;;;;;;8.20;2.67;;;;;;;;;;10456834;28;20028;-81
2023/09/22 10:29:28;;;;;;;9.45;3.28;;;;;;;;;;10454313;28;20390;-82
2023/09/22 10:34:50;;;;;;;26.35;24.27;;;;;;;;;;10451902;28;20013;-81
2023/09/22 10:40:19;;;;;;;22.55;8.68;;;;;;;;;;10431641;28;20016;-67
2023/09/22 10:45:25;;;;;;;20.95;3.13;;;;;;;;;;10460058;28;20303;-84
2023/09/22 10:50:30;;;;;;;6.22;2.90;;;;;;;;;;10448575;28;20211;-87
2023/09/22 10:55:36;;;;;;;11.00;2.85;;;;;;;;;;10469624;28;20303;-90
2023/09/22 11:00:41;;;;;;;10.98;2.45;;;;;;;;;;10456151;28;20379;-87
2023/09/22 11:05:42;;;;;;;9.70;2.50;;;;;;;;;;10468813;28;20234;-88
2023/09/22 11:10:43;;;;;;;15.13;2.75;;;;;;;;;;10468844;28;20059;-88
2023/09/22 11:15:56;;;;;;;8.02;2.53;;;;;;;;;;10449138;28;20021;-88
2023/09/22 11:20:57;;;;;;;11.75;2.40;;;;;;;;;;10461385;28;20027;-88
2023/09/22 11:26:12;;;;;;;14.98;3.15;;;;;;;;;;10466449;28;20202;-88
2023/09/22 11:31:13;;;;;;;19.58;3.03;;;;;;;;;;10461164;28;20015;-87
2023/09/22 11:36:16;;;;;;;16.23;3.95;;;;;;;;;;10448152;28;20246;-84
2023/09/22 11:41:17;;;;;;;15.98;3.63;;;;;;;;;;10456969;28;20023;-80
2023/09/22 11:46:28;;;;;;;16.70;3.17;;;;;;;;;;10457554;28;20036;-78
2023/09/22 11:51:40;;;;;;;8.57;3.53;;;;;;;;;;10460751;28;20234;-78
2023/09/22 11:56:45;;;;;;;13.80;4.95;;;;;;;;;;10440560;28;20021;-84
2023/09/22 12:01:46;;;;;;;11.77;3.75;;;;;;;;;;10443510;28;20139;-75
2023/09/22 12:06:48;;;;;;;17.17;4.00;;;;;;;;;;10459717;28;20234;-78
2023/09/22 12:11:50;;;;;;;22.05;4.38;;;;;;;;;;10462292;28;20041;-78
2023/09/22 12:16:55;;;;;;;27.27;4.47;;;;;;;;;;10465641;28;20024;-82
2023/09/22 12:21:59;;;;;;;19.08;4.72;;;;;;;;;;10441708;28;20035;-73
2023/09/22 12:26:59;;;;;;;19.95;4.10;;;;;;;;;;10459612;28;20078;-71
2023/09/22 12:32:00;;;;;;;16.20;3.22;;;;;;;;;;10457999;28;20017;-74
2023/09/22 12:37:00;;;;;;;28.60;5.50;;;;;;;;;;10440504;28;20024;-72
2023/09/22 12:42:02;;;;;;;25.10;5.22;;;;;;;;;;10457698;28;20331;-73
2023/09/22 12:47:02;;;;;;;28.45;4.25;;;;;;;;;;10455150;28;20021;-72
2023/09/22 12:52:03;;;;;;;19.63;3.30;;;;;;;;;;10458744;28;20035;-73
2023/09/22 12:57:13;;;;;;;18.45;4.38;;;;;;;;;;10458019;28;20028;-80
2023/09/22 13:02:13;;;;;;;31.23;5.72;;;;;;;;;;10458030;28;20023;-76
2023/09/22 13:07:17;;;;;;;24.80;4.60;;;;;;;;;;10439891;28;20035;-81
2023/09/22 13:12:17;;;;;;;28.00;5.25;;;;;;;;;;10438032;28;20087;-73
2023/09/22 13:17:19;;;;;;;21.13;5.03;;;;;;;;;;10458422;28;20028;-81
2023/09/22 13:22:21;;;;;;;23.77;4.82;;;;;;;;;;10456878;28;20207;-77
2023/09/22 13:27:21;;;;;;;24.52;6.10;;;;;;;;;;10437242;28;20024;-78
2023/09/22 13:32:21;;;;;;;24.17;4.45;;;;;;;;;;10456024;28;20017;-78
2023/09/22 13:37:22;;;;;;;21.30;4.07;;;;;;;;;;10454693;28;20250;-79
2023/09/22 13:42:22;;;;;;;22.77;4.18;;;;;;;;;;10455865;28;20025;-78
2023/09/22 13:47:22;;;;;;;19.10;4.05;;;;;;;;;;10456932;28;20024;-76
2023/09/22 13:52:23;;;;;;;22.60;5.30;;;;;;;;;;10456950;28;20074;-76
2023/09/22 13:57:25;;;;;;;33.08;6.03;;;;;;;;;;10446024;28;20191;-77
2023/09/22 14:02:25;;;;;;;24.17;4.07;;;;;;;;;;10445560;28;20025;-77
2023/09/22 14:07:25;;;;;;;20.38;4.13;;;;;;;;;;10445296;28;20253;-77
2023/09/22 14:12:26;;;;;;;24.63;5.35;;;;;;;;;;10451138;28;20049;-79
2023/09/22 14:17:26;;;;;;;29.07;5.07;;;;;;;;;;10459328;28;20071;-76
2023/09/22 14:22:27;;;;;;;24.33;5.25;;;;;;;;;;10460408;28;20365;-81
2023/09/22 14:27:28;;;;;;;35.47;7.05;;;;;;;;;;10461994;28;20100;-73
2023/09/22 14:32:28;;;;;;;30.67;6.75;;;;;;;;;;10452565;28;20017;-73
2023/09/22 14:37:29;;;;;;;20.67;6.18;;;;;;;;;;10449850;28;20311;-83
2023/09/22 14:42:29;;;;;;;19.35;5.85;;;;;;;;;;10448395;28;20429;-84
2023/09/22 14:47:30;;;;;;;28.85;7.05;;;;;;;;;;10447957;28;20017;-86
2023/09/22 14:52:30;;;;;;;22.90;4.85;;;;;;;;;;10469165;28;20016;-85
2023/09/22 14:57:31;;;;;;;34.13;6.57;;;;;;;;;;10467028;28;20032;-86
2023/09/22 15:02:31;;;;;;;23.43;5.10;;;;;;;;;;10467232;28;20055;-86
2023/09/22 15:07:31;;;;;;;16.85;3.72;;;;;;;;;;10468272;28;20314;-86
2023/09/22 15:12:32;;;;;;;23.37;5.20;;;;;;;;;;10468060;28;20415;-86
2023/09/22 15:17:33;;;;;;;17.65;4.38;;;;;;;;;;10470411;28;20013;-86
2023/09/22 15:22:33;;;;;;;20.23;4.45;;;;;;;;;;10471093;28;20013;-85
2023/09/22 15:27:34;;;;;;;20.70;4.75;;;;;;;;;;10467160;28;20545;-86
2023/09/22 15:32:34;;;;;;;28.52;6.15;;;;;;;;;;10470164;28;20028;-86
2023/09/22 15:37:34;;;;;;;25.90;5.65;;;;;;;;;;10467734;28;20029;-86
2023/09/22 15:42:34;;;;;;;120.33;39.77;;;;;;;;;;10467969;28;20238;-86
2023/09/22 15:47:35;;;;;;;30.48;6.35;;;;;;;;;;10470479;28;20017;-86
2023/09/22 15:52:36;;;;;;;16.17;6.05;;;;;;;;;;10466229;28;20111;-84
2023/09/22 15:57:36;;;;;;;18.50;4.93;;;;;;;;;;10465605;28;20088;-84
2023/09/22 16:02:37;;;;;;;15.38;5.05;;;;;;;;;;10464721;28;20199;-84
2023/09/22 16:07:37;;;;;;;24.10;4.70;;;;;;;;;;10464631;28;20052;-85
2023/09/22 16:12:38;;;;;;;25.92;5.05;;;;;;;;;;10467265;28;20337;-85
2023/09/22 16:17:39;;;;;;;28.10;5.47;;;;;;;;;;10461737;28;20023;-84
2023/09/22 16:22:40;;;;;;;32.25;9.93;;;;;;;;;;10469763;28;20024;-85
2023/09/22 16:27:40;;;;;;;26.50;5.88;;;;;;;;;;10468546;28;20059;-86
2023/09/22 16:32:41;;;;;;;19.55;5.40;;;;;;;;;;10464148;28;20310;-85
2023/09/22 16:37:41;;;;;;;30.40;4.88;;;;;;;;;;10463683;28;20021;-85
2023/09/22 16:42:41;;;;;;;24.13;4.97;;;;;;;;;;10462424;28;20021;-85
2023/09/22 16:47:44;;;;;;;39.13;5.95;;;;;;;;;;10462130;28;20029;-84
2023/09/22 16:52:44;;;;;;;20.30;5.30;;;;;;;;;;10445714;28;20330;-85
2023/09/22 16:57:47;;;;;;;28.45;5.53;;;;;;;;;;10462771;28;20249;-85
2023/09/22 17:02:49;;;;;;;27.98;5.72;;;;;;;;;;10463716;28;20021;-86
2023/09/22 17:07:50;;;;;;;27.70;5.80;;;;;;;;;;10463151;28;20331;-85
2023/09/22 17:12:52;;;;;;;26.92;6.10;;;;;;;;;;10463348;28;20029;-85
2023/09/22 17:17:53;;;;;;;28.58;7.10;;;;;;;;;;10463005;28;20219;-85
2023/09/22 17:22:53;;;;;;;20.27;6.18;;;;;;;;;;10444565;28;20078;-86
2023/09/22 17:27:53;;;;;;;31.85;8.05;;;;;;;;;;10443369;28;20087;-86
2023/09/22 17:32:54;;;;;;;29.23;5.37;;;;;;;;;;10463402;28;20219;-86
2023/09/22 17:37:54;;;;;;;34.00;8.52;;;;;;;;;;10461098;28;20013;-86
2023/09/22 17:42:55;;;;;;;15.07;5.57;;;;;;;;;;10460788;28;20207;-85
2023/09/22 17:47:55;;;;;;;27.33;5.63;;;;;;;;;;10435972;28;20207;-85
2023/09/22 17:52:55;;;;;;;32.50;6.20;;;;;;;;;;10461920;28;20009;-85
2023/09/22 17:57:55;;;;;;;27.88;6.43;;;;;;;;;;10460729;28;20301;-82
2023/09/22 18:02:56;;;;;;;26.10;5.85;;;;;;;;;;10455637;28;20071;-80
2023/09/22 18:07:56;;;;;;;34.58;6.97;;;;;;;;;;10452646;28;20542;-80
2023/09/22 18:12:57;;;;;;;18.20;6.37;;;;;;;;;;10432722;28;20108;-85
2023/09/22 18:17:57;;;;;;;30.75;5.72;;;;;;;;;;10453972;28;20023;-80
2023/09/22 18:22:57;;;;;;;34.00;7.03;;;;;;;;;;10436650;28;20013;-80
2023/09/22 18:27:57;;;;;;;16.20;5.73;;;;;;;;;;10454356;28;20231;-83
2023/09/22 18:32:58;;;;;;;18.73;5.18;;;;;;;;;;10439427;28;20009;-84
2023/09/22 18:38:01;;;;;;;19.33;5.22;;;;;;;;;;10441104;28;20025;-82
2023/09/22 18:43:02;;;;;;;24.55;6.10;;;;;;;;;;10422491;28;20374;-79
2023/09/22 18:48:04;;;;;;;20.63;7.22;;;;;;;;;;10451447;28;20032;-75
2023/09/22 18:53:04;;;;;;;29.13;6.32;;;;;;;;;;10456212;28;20049;-75
2023/09/22 18:58:04;;;;;;;27.60;5.17;;;;;;;;;;10448691;28;20020;-79
2023/09/22 19:03:05;;;;;;;19.35;5.40;;;;;;;;;;10454355;28;20040;-92
2023/09/22 19:08:05;;;;;;;22.73;6.25;;;;;;;;;;10459557;28;20325;-73
2023/09/22 19:13:09;;;;;;;24.08;5.32;;;;;;;;;;10449578;28;20044;-71
2023/09/22 19:18:10;;;;;;;21.90;5.65;;;;;;;;;;10434711;28;20099;-73
2023/09/22 19:23:10;;;;;;;17.95;5.45;;;;;;;;;;10453888;28;20016;-72
2023/09/22 19:28:12;;;;;;;26.83;5.88;;;;;;;;;;10451453;28;20017;-73
2023/09/22 19:33:13;;;;;;;19.05;6.28;;;;;;;;;;10450085;28;20013;-73
2023/09/22 19:38:13;;;;;;;17.63;5.23;;;;;;;;;;10436205;28;20259;-77
2023/09/22 19:43:13;;;;;;;23.27;5.13;;;;;;;;;;10449360;28;20013;-77
2023/09/22 19:48:15;;;;;;;32.47;12.77;;;;;;;;;;10451499;28;20250;-77
2023/09/22 19:53:15;;;;;;;18.80;5.32;;;;;;;;;;10450293;28;20339;-75
2023/09/22 19:58:18;;;;;;;18.27;6.07;;;;;;;;;;10447437;28;20013;-75
2023/09/22 20:03:18;;;;;;;17.15;5.38;;;;;;;;;;10449815;28;20104;-73
2023/09/22 20:08:19;;;;;;;22.17;4.77;;;;;;;;;;10447046;28;20192;-76
2023/09/22 20:13:19;;;;;;;17.00;5.18;;;;;;;;;;10446683;28;20180;-76
2023/09/22 20:18:19;;;;;;;15.77;7.43;;;;;;;;;;10447096;28;20086;-77
2023/09/22 20:23:19;;;;;;;16.52;4.50;;;;;;;;;;10447012;28;20036;-74
2023/09/22 20:28:19;;;;;;;20.02;4.90;;;;;;;;;;10447412;28;20012;-74
2023/09/22 20:33:20;;;;;;;15.55;5.20;;;;;;;;;;10447261;28;20017;-72
2023/09/22 20:38:21;;;;;;;15.20;4.23;;;;;;;;;;10448891;28;20060;-72
2023/09/22 20:43:23;;;;;;;23.95;4.40;;;;;;;;;;10437926;28;20021;-74
2023/09/22 20:48:24;;;;;;;11.30;4.20;;;;;;;;;;10440607;28;20175;-78
2023/09/22 20:53:27;;;;;;;12.82;4.80;;;;;;;;;;10453823;28;20115;-70
2023/09/22 20:58:27;;;;;;;20.92;4.60;;;;;;;;;;10455730;28;20095;-73
2023/09/22 21:03:28;;;;;;;22.08;4.82;;;;;;;;;;10453701;28;20013;-73
2023/09/22 21:08:28;;;;;;;17.77;5.33;;;;;;;;;;10436037;28;20071;-72
2023/09/22 21:13:29;;;;;;;21.73;5.80;;;;;;;;;;10450111;28;20291;-73
2023/09/22 21:18:30;;;;;;;27.70;4.68;;;;;;;;;;10453762;28;20200;-73
2023/09/22 21:23:31;;;;;;;12.40;4.70;;;;;;;;;;10453210;28;20529;-73
2023/09/22 21:28:31;;;;;;;11.77;4.55;;;;;;;;;;10452804;28;20028;-73
2023/09/22 21:33:32;;;;;;;21.30;4.55;;;;;;;;;;10450732;28;20020;-74
2023/09/22 21:38:32;;;;;;;15.90;4.67;;;;;;;;;;10454862;28;20020;-73
2023/09/22 21:43:33;;;;;;;15.98;5.00;;;;;;;;;;10454379;28;20502;-73
2023/09/22 21:48:33;;;;;;;17.63;3.95;;;;;;;;;;10451964;28;20080;-72
2023/09/22 21:53:34;;;;;;;9.80;4.70;;;;;;;;;;10455518;28;20092;-73
2023/09/22 21:58:34;;;;;;;15.87;5.73;;;;;;;;;;10450951;28;20040;-73
2023/09/22 22:03:37;;;;;;;23.13;5.10;;;;;;;;;;10453078;28;20298;-73
2023/09/22 22:08:40;;;;;;;14.95;5.43;;;;;;;;;;10436388;28;20020;-74
2023/09/22 22:13:42;;;;;;;12.65;4.85;;;;;;;;;;10454049;28;20040;-73
2023/09/22 22:18:42;;;;;;;14.77;5.55;;;;;;;;;;10451757;28;20017;-73
2023/09/22 22:23:43;;;;;;;16.92;5.47;;;;;;;;;;10454181;28;20021;-73
2023/09/22 22:28:43;;;;;;;20.80;5.75;;;;;;;;;;10450859;28;20274;-72
2023/09/22 22:33:44;;;;;;;21.27;5.65;;;;;;;;;;10457187;28;20047;-75
2023/09/22 22:38:44;;;;;;;19.75;5.85;;;;;;;;;;10462083;28;20227;-73
2023/09/22 22:43:44;;;;;;;17.85;7.15;;;;;;;;;;10458852;28;20024;-73
2023/09/22 22:48:45;;;;;;;15.18;5.97;;;;;;;;;;10460221;28;20027;-72
2023/09/22 22:53:45;;;;;;;18.60;6.20;;;;;;;;;;10459517;28;20025;-72
2023/09/22 22:58:45;;;;;;;16.80;6.47;;;;;;;;;;10459122;28;20308;-74
2023/09/22 23:03:49;;;;;;;15.55;6.55;;;;;;;;;;10460639;28;20009;-72
2023/09/22 23:08:51;;;;;;;22.65;6.25;;;;;;;;;;10459646;28;20021;-72
2023/09/22 23:13:51;;;;;;;19.02;6.82;;;;;;;;;;10458190;28;20056;-73
2023/09/22 23:18:51;;;;;;;22.52;7.25;;;;;;;;;;10459060;28;20192;-74
2023/09/22 23:23:53;;;;;;;23.77;7.65;;;;;;;;;;10457559;28;20024;-72
2023/09/22 23:28:54;;;;;;;19.20;6.75;;;;;;;;;;10458106;28;20544;-72
2023/09/22 23:33:57;;;;;;;15.88;7.13;;;;;;;;;;10455062;28;20021;-73
2023/09/22 23:39:02;;;;;;;21.35;6.55;;;;;;;;;;10456921;28;20029;-72
2023/09/22 23:44:10;;;;;;;20.15;7.45;;;;;;;;;;10456991;28;20048;-73
2023/09/22 23:49:11;;;;;;;18.10;7.28;;;;;;;;;;10457787;28;20206;-73
2023/09/22 23:54:11;;;;;;;24.50;7.90;;;;;;;;;;10457818;28;20028;-73
2023/09/22 23:59:13;;;;;;;19.45;7.15;;;;;;;;;;10457162;28;20021;-73
